sensor_id;sensor_type;location;lat;lon;timestamp;temperature;humidity
30379;DHT22;17168;49.164;9.060;2024-03-08T00:01:58;4.90;73.70
30379;DHT22;17168;49.164;9.060;2024-03-08T00:04:31;4.80;74.00
30379;DHT22;17168;49.164;9.060;2024-03-08T00:07:06;4.80;74.60
30379;DHT22;17168;49.164;9.060;2024-03-08T00:09:39;4.70;75.10
30379;DHT22;17168;49.164;9.060;2024-03-08T00:12:11;4.70;75.30
30379;DHT22;17168;49.164;9.060;2024-03-08T00:14:43;4.60;75.70
30379;DHT22;17168;49.164;9.060;2024-03-08T00:17:16;4.60;75.90
30379;DHT22;17168;49.164;9.060;2024-03-08T00:19:49;4.50;76.00
30379;DHT22;17168;49.164;9.060;2024-03-08T00:22:24;4.50;76.70
30379;DHT22;17168;49.164;9.060;2024-03-08T00:24:56;4.40;76.90
30379;DHT22;17168;49.164;9.060;2024-03-08T00:27:28;4.40;77.40
30379;DHT22;17168;49.164;9.060;2024-03-08T00:30:03;4.40;77.50
30379;DHT22;17168;49.164;9.060;2024-03-08T00:32:35;4.40;77.70
30379;DHT22;17168;49.164;9.060;2024-03-08T00:35:09;4.30;78.00
30379;DHT22;17168;49.164;9.060;2024-03-08T00:37:48;4.30;79.90
30379;DHT22;17168;49.164;9.060;2024-03-08T00:40:23;4.30;79.70
30379;DHT22;17168;49.164;9.060;2024-03-08T00:42:55;4.20;78.70
30379;DHT22;17168;49.164;9.060;2024-03-08T00:45:30;4.10;80.10
30379;DHT22;17168;49.164;9.060;2024-03-08T00:48:03;4.20;81.30
30379;DHT22;17168;49.164;9.060;2024-03-08T00:50:36;4.10;80.90
30379;DHT22;17168;49.164;9.060;2024-03-08T00:53:13;4.10;81.80
30379;DHT22;17168;49.164;9.060;2024-03-08T00:55:45;4.00;81.80
30379;DHT22;17168;49.164;9.060;2024-03-08T00:58:18;4.10;84.50
30379;DHT22;17168;49.164;9.060;2024-03-08T01:00:51;4.10;85.10
30379;DHT22;17168;49.164;9.060;2024-03-08T01:03:24;4.00;86.10
30379;DHT22;17168;49.164;9.060;2024-03-08T01:05:59;4.00;85.50
30379;DHT22;17168;49.164;9.060;2024-03-08T01:08:36;4.00;87.00
30379;DHT22;17168;49.164;9.060;2024-03-08T01:11:12;4.00;88.00
30379;DHT22;17168;49.164;9.060;2024-03-08T01:13:46;3.90;86.70
30379;DHT22;17168;49.164;9.060;2024-03-08T01:16:22;3.90;86.80
30379;DHT22;17168;49.164;9.060;2024-03-08T01:18:55;3.80;86.30
30379;DHT22;17168;49.164;9.060;2024-03-08T01:21:27;3.80;86.60
30379;DHT22;17168;49.164;9.060;2024-03-08T01:24:02;3.70;88.60
30379;DHT22;17168;49.164;9.060;2024-03-08T01:26:35;3.70;87.90
30379;DHT22;17168;49.164;9.060;2024-03-08T01:29:07;3.70;88.40
30379;DHT22;17168;49.164;9.060;2024-03-08T01:31:40;3.60;89.50
30379;DHT22;17168;49.164;9.060;2024-03-08T01:34:12;3.60;88.20
30379;DHT22;17168;49.164;9.060;2024-03-08T01:36:44;3.60;89.10
30379;DHT22;17168;49.164;9.060;2024-03-08T01:39:20;3.60;91.90
30379;DHT22;17168;49.164;9.060;2024-03-08T01:41:54;3.50;91.50
30379;DHT22;17168;49.164;9.060;2024-03-08T01:44:27;3.50;95.40
30379;DHT22;17168;49.164;9.060;2024-03-08T01:46:59;3.40;95.90
30379;DHT22;17168;49.164;9.060;2024-03-08T01:49:32;3.40;96.10
30379;DHT22;17168;49.164;9.060;2024-03-08T01:52:06;3.40;96.20
30379;DHT22;17168;49.164;9.060;2024-03-08T01:54:41;3.40;96.00
30379;DHT22;17168;49.164;9.060;2024-03-08T01:57:13;3.30;95.40
30379;DHT22;17168;49.164;9.060;2024-03-08T02:04:53;3.30;98.30
30379;DHT22;17168;49.164;9.060;2024-03-08T02:07:25;3.30;98.00
30379;DHT22;17168;49.164;9.060;2024-03-08T02:10:00;3.20;98.50
30379;DHT22;17168;49.164;9.060;2024-03-08T02:12:33;3.20;97.50
30379;DHT22;17168;49.164;9.060;2024-03-08T02:15:06;3.10;95.60
30379;DHT22;17168;49.164;9.060;2024-03-08T02:17:39;3.10;95.70
30379;DHT22;17168;49.164;9.060;2024-03-08T02:20:11;3.10;95.40
30379;DHT22;17168;49.164;9.060;2024-03-08T02:22:48;3.10;95.40
30379;DHT22;17168;49.164;9.060;2024-03-08T02:25:26;3.10;95.80
30379;DHT22;17168;49.164;9.060;2024-03-08T02:27:58;3.00;96.10
30379;DHT22;17168;49.164;9.060;2024-03-08T02:30:30;3.00;96.20
30379;DHT22;17168;49.164;9.060;2024-03-08T02:53:33;2.70;99.90
30379;DHT22;17168;49.164;9.060;2024-03-08T02:56:05;2.70;99.90
30379;DHT22;17168;49.164;9.060;2024-03-08T02:58:40;2.70;99.90
30379;DHT22;17168;49.164;9.060;2024-03-08T03:01:12;2.70;99.90
30379;DHT22;17168;49.164;9.060;2024-03-08T03:03:45;2.60;99.90
30379;DHT22;17168;49.164;9.060;2024-03-08T03:06:19;2.70;99.90
30379;DHT22;17168;49.164;9.060;2024-03-08T03:08:55;2.60;99.90
30379;DHT22;17168;49.164;9.060;2024-03-08T03:11:29;2.60;99.90
30379;DHT22;17168;49.164;9.060;2024-03-08T03:21:39;2.50;99.90
30379;DHT22;17168;49.164;9.060;2024-03-08T03:31:54;2.40;99.90
30379;DHT22;17168;49.164;9.060;2024-03-08T03:34:26;2.50;99.90
30379;DHT22;17168;49.164;9.060;2024-03-08T03:36:58;2.50;99.90
30379;DHT22;17168;49.164;9.060;2024-03-08T03:39:33;2.40;99.90
30379;DHT22;17168;49.164;9.060;2024-03-08T03:42:06;2.40;99.90
30379;DHT22;17168;49.164;9.060;2024-03-08T03:44:38;2.40;99.90
30379;DHT22;17168;49.164;9.060;2024-03-08T03:47:11;2.40;99.90
30379;DHT22;17168;49.164;9.060;2024-03-08T03:49:43;2.40;99.90
30379;DHT22;17168;49.164;9.060;2024-03-08T03:52:15;2.30;99.90
30379;DHT22;17168;49.164;9.060;2024-03-08T03:54:50;2.30;99.90
30379;DHT22;17168;49.164;9.060;2024-03-08T03:57:22;2.30;99.90
30379;DHT22;17168;49.164;9.060;2024-03-08T03:59:55;2.30;99.90
30379;DHT22;17168;49.164;9.060;2024-03-08T04:02:27;2.30;99.90
30379;DHT22;17168;49.164;9.060;2024-03-08T04:04:59;2.20;99.90
30379;DHT22;17168;49.164;9.060;2024-03-08T04:07:31;2.20;99.90
30379;DHT22;17168;49.164;9.060;2024-03-08T04:10:08;2.20;99.90
30379;DHT22;17168;49.164;9.060;2024-03-08T04:12:40;2.10;99.90
30379;DHT22;17168;49.164;9.060;2024-03-08T04:15:13;2.10;99.90
30379;DHT22;17168;49.164;9.060;2024-03-08T04:17:45;2.10;99.90
30379;DHT22;17168;49.164;9.060;2024-03-08T04:20:18;2.10;99.90
30379;DHT22;17168;49.164;9.060;2024-03-08T04:22:50;2.10;99.90
30379;DHT22;17168;49.164;9.060;2024-03-08T04:48:23;1.90;99.90
30379;DHT22;17168;49.164;9.060;2024-03-08T04:50:55;2.00;99.90
30379;DHT22;17168;49.164;9.060;2024-03-08T04:53:27;2.00;99.90
30379;DHT22;17168;49.164;9.060;2024-03-08T04:56:04;2.00;99.90
30379;DHT22;17168;49.164;9.060;2024-03-08T04:58:38;2.00;99.90
30379;DHT22;17168;49.164;9.060;2024-03-08T05:01:10;1.90;99.90
30379;DHT22;17168;49.164;9.060;2024-03-08T05:03:43;1.90;99.90
30379;DHT22;17168;49.164;9.060;2024-03-08T05:06:15;1.90;99.90
30379;DHT22;17168;49.164;9.060;2024-03-08T05:08:47;1.90;99.90
30379;DHT22;17168;49.164;9.060;2024-03-08T05:11:22;1.90;99.90
30379;DHT22;17168;49.164;9.060;2024-03-08T05:13:55;1.90;99.90
30379;DHT22;17168;49.164;9.060;2024-03-08T05:16:27;1.90;99.90
30379;DHT22;17168;49.164;9.060;2024-03-08T05:18:59;1.90;99.90
30379;DHT22;17168;49.164;9.060;2024-03-08T05:21:31;1.90;99.90
30379;DHT22;17168;49.164;9.060;2024-03-08T05:24:04;1.90;99.90
30379;DHT22;17168;49.164;9.060;2024-03-08T05:26:40;1.90;99.90
30379;DHT22;17168;49.164;9.060;2024-03-08T05:29:12;1.90;99.90
30379;DHT22;17168;49.164;9.060;2024-03-08T05:31:47;1.80;99.90
30379;DHT22;17168;49.164;9.060;2024-03-08T05:34:20;1.80;99.90
30379;DHT22;17168;49.164;9.060;2024-03-08T05:36:53;1.80;99.90
30379;DHT22;17168;49.164;9.060;2024-03-08T05:39:27;1.80;99.90
30379;DHT22;17168;49.164;9.060;2024-03-08T05:42:01;1.80;99.90
30379;DHT22;17168;49.164;9.060;2024-03-08T05:44:34;1.80;99.90
30379;DHT22;17168;49.164;9.060;2024-03-08T05:47:06;1.80;99.90
30379;DHT22;17168;49.164;9.060;2024-03-08T05:49:39;1.80;99.90
30379;DHT22;17168;49.164;9.060;2024-03-08T05:52:11;1.80;99.90
30379;DHT22;17168;49.164;9.060;2024-03-08T05:54:43;1.80;99.90
30379;DHT22;17168;49.164;9.060;2024-03-08T05:57:19;1.80;99.90
30379;DHT22;17168;49.164;9.060;2024-03-08T05:59:51;1.80;99.90
30379;DHT22;17168;49.164;9.060;2024-03-08T06:02:23;1.70;99.90
30379;DHT22;17168;49.164;9.060;2024-03-08T06:04:56;1.70;99.90
30379;DHT22;17168;49.164;9.060;2024-03-08T06:07:31;1.70;99.90
30379;DHT22;17168;49.164;9.060;2024-03-08T06:10:06;1.70;99.90
30379;DHT22;17168;49.164;9.060;2024-03-08T06:12:41;1.80;99.90
30379;DHT22;17168;49.164;9.060;2024-03-08T06:15:14;1.70;99.90
30379;DHT22;17168;49.164;9.060;2024-03-08T06:17:47;1.80;99.90
30379;DHT22;17168;49.164;9.060;2024-03-08T06:20:20;1.80;99.90
30379;DHT22;17168;49.164;9.060;2024-03-08T06:22:52;1.80;99.90
30379;DHT22;17168;49.164;9.060;2024-03-08T06:25:24;1.80;99.90
30379;DHT22;17168;49.164;9.060;2024-03-08T06:28:00;1.90;99.90
30379;DHT22;17168;49.164;9.060;2024-03-08T06:33:06;1.80;99.90
30379;DHT22;17168;49.164;9.060;2024-03-08T06:35:39;2.00;99.90
30379;DHT22;17168;49.164;9.060;2024-03-08T06:38:11;2.00;99.90
30379;DHT22;17168;49.164;9.060;2024-03-08T06:40:44;2.10;99.90
30379;DHT22;17168;49.164;9.060;2024-03-08T06:43:19;2.10;99.90
30379;DHT22;17168;49.164;9.060;2024-03-08T06:45:51;2.10;99.90
30379;DHT22;17168;49.164;9.060;2024-03-08T06:48:24;2.20;99.90
30379;DHT22;17168;49.164;9.060;2024-03-08T06:50:57;2.20;99.90
30379;DHT22;17168;49.164;9.060;2024-03-08T06:53:29;2.30;99.90
30379;DHT22;17168;49.164;9.060;2024-03-08T06:56:01;2.30;99.90
30379;DHT22;17168;49.164;9.060;2024-03-08T06:58:36;2.30;99.90
30379;DHT22;17168;49.164;9.060;2024-03-08T07:01:09;2.40;99.90
30379;DHT22;17168;49.164;9.060;2024-03-08T07:03:46;2.50;99.90
30379;DHT22;17168;49.164;9.060;2024-03-08T07:06:19;2.60;99.90
30379;DHT22;17168;49.164;9.060;2024-03-08T07:08:52;2.60;99.90
30379;DHT22;17168;49.164;9.060;2024-03-08T07:11:24;2.70;99.90
30379;DHT22;17168;49.164;9.060;2024-03-08T07:13:59;2.80;99.90
30379;DHT22;17168;49.164;9.060;2024-03-08T07:16:35;2.80;99.90
30379;DHT22;17168;49.164;9.060;2024-03-08T07:19:11;2.90;99.90
30379;DHT22;17168;49.164;9.060;2024-03-08T07:21:44;3.00;99.90
30379;DHT22;17168;49.164;9.060;2024-03-08T07:24:16;3.10;99.90
30379;DHT22;17168;49.164;9.060;2024-03-08T07:26:48;3.10;99.90
30379;DHT22;17168;49.164;9.060;2024-03-08T07:29:24;3.20;99.90
30379;DHT22;17168;49.164;9.060;2024-03-08T07:31:56;3.30;99.90
30379;DHT22;17168;49.164;9.060;2024-03-08T07:34:34;3.40;99.90
30379;DHT22;17168;49.164;9.060;2024-03-08T07:37:06;3.40;99.90
30379;DHT22;17168;49.164;9.060;2024-03-08T07:39:43;3.50;99.90
30379;DHT22;17168;49.164;9.060;2024-03-08T07:42:15;3.60;99.90
30379;DHT22;17168;49.164;9.060;2024-03-08T07:44:51;3.70;99.90
30379;DHT22;17168;49.164;9.060;2024-03-08T07:47:24;3.80;99.90
30379;DHT22;17168;49.164;9.060;2024-03-08T07:49:58;3.90;99.90
30379;DHT22;17168;49.164;9.060;2024-03-08T07:52:35;4.00;99.90
30379;DHT22;17168;49.164;9.060;2024-03-08T07:55:08;4.10;99.90
30379;DHT22;17168;49.164;9.060;2024-03-08T07:57:44;4.20;99.90
30379;DHT22;17168;49.164;9.060;2024-03-08T08:00:19;4.30;99.90
30379;DHT22;17168;49.164;9.060;2024-03-08T08:02:52;4.50;99.90
30379;DHT22;17168;49.164;9.060;2024-03-08T08:05:24;4.70;99.90
30379;DHT22;17168;49.164;9.060;2024-03-08T08:07:56;4.90;99.90
30379;DHT22;17168;49.164;9.060;2024-03-08T08:10:28;5.00;99.90
30379;DHT22;17168;49.164;9.060;2024-03-08T08:13:01;5.20;99.90
30379;DHT22;17168;49.164;9.060;2024-03-08T08:15:38;5.30;99.90
30379;DHT22;17168;49.164;9.060;2024-03-08T08:18:10;5.50;99.50
30379;DHT22;17168;49.164;9.060;2024-03-08T08:20:42;5.50;99.00
30379;DHT22;17168;49.164;9.060;2024-03-08T08:23:14;5.70;98.60
30379;DHT22;17168;49.164;9.060;2024-03-08T08:25:47;5.80;98.20
30379;DHT22;17168;49.164;9.060;2024-03-08T08:28:22;5.90;97.50
30379;DHT22;17168;49.164;9.060;2024-03-08T08:30:56;6.00;97.00
30379;DHT22;17168;49.164;9.060;2024-03-08T08:33:29;6.10;96.60
30379;DHT22;17168;49.164;9.060;2024-03-08T08:36:01;6.20;96.50
30379;DHT22;17168;49.164;9.060;2024-03-08T08:38:33;6.30;96.20
30379;DHT22;17168;49.164;9.060;2024-03-08T08:41:05;6.30;95.90
30379;DHT22;17168;49.164;9.060;2024-03-08T08:43:38;6.40;95.60
30379;DHT22;17168;49.164;9.060;2024-03-08T08:46:23;6.50;95.40
30379;DHT22;17168;49.164;9.060;2024-03-08T08:48:56;6.60;95.20
30379;DHT22;17168;49.164;9.060;2024-03-08T08:51:28;6.70;94.90
30379;DHT22;17168;49.164;9.060;2024-03-08T08:54:00;6.80;94.70
30379;DHT22;17168;49.164;9.060;2024-03-08T08:56:32;6.80;94.20
30379;DHT22;17168;49.164;9.060;2024-03-08T08:59:04;6.90;93.70
30379;DHT22;17168;49.164;9.060;2024-03-08T09:01:39;7.00;93.40
30379;DHT22;17168;49.164;9.060;2024-03-08T09:04:12;7.10;93.30
30379;DHT22;17168;49.164;9.060;2024-03-08T09:06:44;7.10;93.00
30379;DHT22;17168;49.164;9.060;2024-03-08T09:09:17;7.30;92.90
30379;DHT22;17168;49.164;9.060;2024-03-08T09:11:49;7.30;92.70
30379;DHT22;17168;49.164;9.060;2024-03-08T09:14:22;7.50;92.60
30379;DHT22;17168;49.164;9.060;2024-03-08T09:16:56;7.60;92.00
30379;DHT22;17168;49.164;9.060;2024-03-08T09:19:29;7.60;91.90
30379;DHT22;17168;49.164;9.060;2024-03-08T09:22:01;7.60;91.50
30379;DHT22;17168;49.164;9.060;2024-03-08T09:24:35;7.70;91.50
30379;DHT22;17168;49.164;9.060;2024-03-08T09:27:08;7.70;91.40
30379;DHT22;17168;49.164;9.060;2024-03-08T09:29:41;7.80;91.40
30379;DHT22;17168;49.164;9.060;2024-03-08T09:32:16;7.80;91.10
30379;DHT22;17168;49.164;9.060;2024-03-08T09:34:48;7.80;90.90
30379;DHT22;17168;49.164;9.060;2024-03-08T09:37:22;7.90;90.70
30379;DHT22;17168;49.164;9.060;2024-03-08T09:39:55;7.90;90.70
30379;DHT22;17168;49.164;9.060;2024-03-08T09:42:27;8.00;90.60
30379;DHT22;17168;49.164;9.060;2024-03-08T09:45:00;8.10;90.30
30379;DHT22;17168;49.164;9.060;2024-03-08T09:47:35;8.10;90.30
30379;DHT22;17168;49.164;9.060;2024-03-08T09:50:10;8.20;90.20
30379;DHT22;17168;49.164;9.060;2024-03-08T09:52:47;8.30;90.00
30379;DHT22;17168;49.164;9.060;2024-03-08T09:55:20;8.30;89.80
30379;DHT22;17168;49.164;9.060;2024-03-08T09:57:55;8.30;89.40
30379;DHT22;17168;49.164;9.060;2024-03-08T10:00:46;8.30;89.30
30379;DHT22;17168;49.164;9.060;2024-03-08T10:03:22;8.40;89.50
30379;DHT22;17168;49.164;9.060;2024-03-08T10:05:55;8.50;89.50
30379;DHT22;17168;49.164;9.060;2024-03-08T10:08:30;8.60;89.40
30379;DHT22;17168;49.164;9.060;2024-03-08T10:11:02;8.70;89.40
30379;DHT22;17168;49.164;9.060;2024-03-08T10:13:35;8.80;88.90
30379;DHT22;17168;49.164;9.060;2024-03-08T10:16:08;8.90;88.30
30379;DHT22;17168;49.164;9.060;2024-03-08T10:18:44;9.00;87.50
30379;DHT22;17168;49.164;9.060;2024-03-08T10:21:16;9.10;87.10
30379;DHT22;17168;49.164;9.060;2024-03-08T10:23:49;9.10;86.30
30379;DHT22;17168;49.164;9.060;2024-03-08T10:26:22;9.20;86.00
30379;DHT22;17168;49.164;9.060;2024-03-08T10:28:54;9.30;86.20
30379;DHT22;17168;49.164;9.060;2024-03-08T10:31:26;9.40;86.30
30379;DHT22;17168;49.164;9.060;2024-03-08T10:34:01;9.70;87.60
30379;DHT22;17168;49.164;9.060;2024-03-08T10:36:36;9.90;88.40
30379;DHT22;17168;49.164;9.060;2024-03-08T10:39:15;10.10;89.80
30379;DHT22;17168;49.164;9.060;2024-03-08T10:41:56;10.20;90.90
30379;DHT22;17168;49.164;9.060;2024-03-08T10:44:49;10.40;92.30
30379;DHT22;17168;49.164;9.060;2024-03-08T10:47:26;10.50;92.10
30379;DHT22;17168;49.164;9.060;2024-03-08T10:50:10;10.50;93.20
30379;DHT22;17168;49.164;9.060;2024-03-08T10:52:45;10.60;87.80
30379;DHT22;17168;49.164;9.060;2024-03-08T10:55:20;10.70;87.90
30379;DHT22;17168;49.164;9.060;2024-03-08T10:57:53;10.80;89.10
30379;DHT22;17168;49.164;9.060;2024-03-08T11:16:08;11.20;94.70
30379;DHT22;17168;49.164;9.060;2024-03-08T11:21:17;11.60;87.70
30379;DHT22;17168;49.164;9.060;2024-03-08T11:23:59;11.90;85.80
30379;DHT22;17168;49.164;9.060;2024-03-08T11:26:31;12.00;87.20
30379;DHT22;17168;49.164;9.060;2024-03-08T11:31:51;12.00;86.70
30379;DHT22;17168;49.164;9.060;2024-03-08T11:34:23;12.20;85.20
30379;DHT22;17168;49.164;9.060;2024-03-08T11:36:59;12.30;84.10
30379;DHT22;17168;49.164;9.060;2024-03-08T11:39:31;12.60;87.10
30379;DHT22;17168;49.164;9.060;2024-03-08T11:42:04;13.00;83.90
30379;DHT22;17168;49.164;9.060;2024-03-08T11:44:36;13.30;83.10
30379;DHT22;17168;49.164;9.060;2024-03-08T11:47:09;13.50;82.20
30379;DHT22;17168;49.164;9.060;2024-03-08T11:49:42;13.50;80.20
30379;DHT22;17168;49.164;9.060;2024-03-08T11:52:19;13.40;79.40
30379;DHT22;17168;49.164;9.060;2024-03-08T11:54:53;13.70;80.00
30379;DHT22;17168;49.164;9.060;2024-03-08T11:57:26;14.20;73.10
30379;DHT22;17168;49.164;9.060;2024-03-08T12:00:00;14.40;66.90
30379;DHT22;17168;49.164;9.060;2024-03-08T12:10:31;18.00;58.70
30379;DHT22;17168;49.164;9.060;2024-03-08T12:13:05;17.70;61.00
30379;DHT22;17168;49.164;9.060;2024-03-08T12:15:45;17.30;59.80
30379;DHT22;17168;49.164;9.060;2024-03-08T12:18:17;17.10;59.30
30379;DHT22;17168;49.164;9.060;2024-03-08T12:20:49;17.90;68.00
30379;DHT22;17168;49.164;9.060;2024-03-08T12:25:58;20.40;83.40
30379;DHT22;17168;49.164;9.060;2024-03-08T12:36:33;25.40;45.50
30379;DHT22;17168;49.164;9.060;2024-03-08T12:39:09;25.50;55.80
30379;DHT22;17168;49.164;9.060;2024-03-08T12:44:17;25.90;60.90
30379;DHT22;17168;49.164;9.060;2024-03-08T12:51:58;27.60;63.20
30379;DHT22;17168;49.164;9.060;2024-03-08T13:17:52;31.00;64.50
30379;DHT22;17168;49.164;9.060;2024-03-08T13:20:24;31.00;57.00
30379;DHT22;17168;49.164;9.060;2024-03-08T13:23:11;31.10;56.60
30379;DHT22;17168;49.164;9.060;2024-03-08T13:25:46;31.20;55.80
30379;DHT22;17168;49.164;9.060;2024-03-08T13:28:22;31.30;56.20
30379;DHT22;17168;49.164;9.060;2024-03-08T13:30:59;31.40;56.00
30379;DHT22;17168;49.164;9.060;2024-03-08T13:33:35;31.50;55.60
30379;DHT22;17168;49.164;9.060;2024-03-08T13:36:08;31.70;55.80
30379;DHT22;17168;49.164;9.060;2024-03-08T13:38:48;31.90;55.10
30379;DHT22;17168;49.164;9.060;2024-03-08T14:06:56;28.30;64.00
30379;DHT22;17168;49.164;9.060;2024-03-08T14:17:18;24.50;61.40
30379;DHT22;17168;49.164;9.060;2024-03-08T14:24:55;22.70;61.60
30379;DHT22;17168;49.164;9.060;2024-03-08T14:27:30;22.30;50.30
30379;DHT22;17168;49.164;9.060;2024-03-08T14:30:04;21.80;56.10
30379;DHT22;17168;49.164;9.060;2024-03-08T14:32:36;21.40;56.40
30379;DHT22;17168;49.164;9.060;2024-03-08T14:35:10;21.00;58.60
30379;DHT22;17168;49.164;9.060;2024-03-08T14:47:56;19.20;63.40
30379;DHT22;17168;49.164;9.060;2024-03-08T14:50:28;18.90;56.00
30379;DHT22;17168;49.164;9.060;2024-03-08T14:53:00;18.70;64.60
30379;DHT22;17168;49.164;9.060;2024-03-08T15:00:43;18.00;52.60
30379;DHT22;17168;49.164;9.060;2024-03-08T15:03:16;17.70;46.90
30379;DHT22;17168;49.164;9.060;2024-03-08T15:05:49;17.50;46.20
30379;DHT22;17168;49.164;9.060;2024-03-08T15:08:22;17.40;49.70
30379;DHT22;17168;49.164;9.060;2024-03-08T15:10:56;17.20;48.30
30379;DHT22;17168;49.164;9.060;2024-03-08T15:13:34;16.90;55.60
30379;DHT22;17168;49.164;9.060;2024-03-08T15:18:50;16.10;80.30
30379;DHT22;17168;49.164;9.060;2024-03-08T15:31:39;15.40;48.20
30379;DHT22;17168;49.164;9.060;2024-03-08T15:34:14;15.30;48.80
30379;DHT22;17168;49.164;9.060;2024-03-08T15:36:48;15.20;49.10
30379;DHT22;17168;49.164;9.060;2024-03-08T15:41:56;14.90;49.20
30379;DHT22;17168;49.164;9.060;2024-03-08T15:44:31;14.80;50.00
30379;DHT22;17168;49.164;9.060;2024-03-08T15:49:39;14.50;49.90
30379;DHT22;17168;49.164;9.060;2024-03-08T15:52:11;14.30;50.40
30379;DHT22;17168;49.164;9.060;2024-03-08T15:54:44;14.30;50.90
30379;DHT22;17168;49.164;9.060;2024-03-08T15:57:18;14.20;51.10
30379;DHT22;17168;49.164;9.060;2024-03-08T15:59:55;14.10;51.30
30379;DHT22;17168;49.164;9.060;2024-03-08T16:02:31;14.00;51.70
30379;DHT22;17168;49.164;9.060;2024-03-08T16:05:04;13.90;51.80
30379;DHT22;17168;49.164;9.060;2024-03-08T16:07:39;13.80;51.90
30379;DHT22;17168;49.164;9.060;2024-03-08T16:10:11;13.80;52.20
30379;DHT22;17168;49.164;9.060;2024-03-08T16:12:43;13.70;52.30
30379;DHT22;17168;49.164;9.060;2024-03-08T16:15:18;13.60;52.60
30379;DHT22;17168;49.164;9.060;2024-03-08T16:17:52;13.60;52.90
30379;DHT22;17168;49.164;9.060;2024-03-08T16:22:57;13.30;52.70
30379;DHT22;17168;49.164;9.060;2024-03-08T16:25:30;13.20;53.30
30379;DHT22;17168;49.164;9.060;2024-03-08T16:28:02;13.20;53.50
30379;DHT22;17168;49.164;9.060;2024-03-08T16:30:37;13.10;53.70
30379;DHT22;17168;49.164;9.060;2024-03-08T16:33:09;13.00;53.80
30379;DHT22;17168;49.164;9.060;2024-03-08T16:35:42;12.90;54.00
30379;DHT22;17168;49.164;9.060;2024-03-08T16:38:18;12.80;54.20
30379;DHT22;17168;49.164;9.060;2024-03-08T16:40:51;12.70;54.40
30379;DHT22;17168;49.164;9.060;2024-03-08T16:43:24;12.60;54.60
30379;DHT22;17168;49.164;9.060;2024-03-08T16:45:59;12.60;54.80
30379;DHT22;17168;49.164;9.060;2024-03-08T16:48:36;12.40;54.90
30379;DHT22;17168;49.164;9.060;2024-03-08T16:51:08;12.40;55.10
30379;DHT22;17168;49.164;9.060;2024-03-08T16:53:41;12.20;55.50
30379;DHT22;17168;49.164;9.060;2024-03-08T16:56:14;12.20;55.70
30379;DHT22;17168;49.164;9.060;2024-03-08T16:58:46;12.00;55.90
30379;DHT22;17168;49.164;9.060;2024-03-08T17:01:22;11.90;56.00
30379;DHT22;17168;49.164;9.060;2024-03-08T17:03:54;11.80;56.50
30379;DHT22;17168;49.164;9.060;2024-03-08T17:06:32;11.70;56.60
30379;DHT22;17168;49.164;9.060;2024-03-08T17:09:05;11.60;56.80
30379;DHT22;17168;49.164;9.060;2024-03-08T17:11:43;11.50;56.90
30379;DHT22;17168;49.164;9.060;2024-03-08T17:14:15;11.40;57.00
30379;DHT22;17168;49.164;9.060;2024-03-08T17:16:50;11.20;57.20
30379;DHT22;17168;49.164;9.060;2024-03-08T17:19:23;11.10;57.40
30379;DHT22;17168;49.164;9.060;2024-03-08T17:21:55;11.00;57.50
30379;DHT22;17168;49.164;9.060;2024-03-08T17:24:28;10.90;58.50
30379;DHT22;17168;49.164;9.060;2024-03-08T17:27:00;10.80;58.10
30379;DHT22;17168;49.164;9.060;2024-03-08T17:29:32;10.70;58.30
30379;DHT22;17168;49.164;9.060;2024-03-08T17:32:08;10.70;58.30
30379;DHT22;17168;49.164;9.060;2024-03-08T17:34:40;10.60;58.50
30379;DHT22;17168;49.164;9.060;2024-03-08T17:37:12;10.50;59.00
30379;DHT22;17168;49.164;9.060;2024-03-08T17:39:46;10.40;58.70
30379;DHT22;17168;49.164;9.060;2024-03-08T17:42:18;10.40;61.50
30379;DHT22;17168;49.164;9.060;2024-03-08T17:44:51;10.40;63.50
30379;DHT22;17168;49.164;9.060;2024-03-08T17:47:25;10.30;65.00
30379;DHT22;17168;49.164;9.060;2024-03-08T17:49:58;10.10;59.20
30379;DHT22;17168;49.164;9.060;2024-03-08T17:52:32;10.00;59.40
30379;DHT22;17168;49.164;9.060;2024-03-08T17:55:05;10.00;59.80
30379;DHT22;17168;49.164;9.060;2024-03-08T17:57:42;10.00;60.70
30379;DHT22;17168;49.164;9.060;2024-03-08T18:00:19;9.80;59.80
30379;DHT22;17168;49.164;9.060;2024-03-08T18:03:04;9.70;59.90
30379;DHT22;17168;49.164;9.060;2024-03-08T18:05:48;9.70;59.90
30379;DHT22;17168;49.164;9.060;2024-03-08T18:08:20;9.60;60.40
30379;DHT22;17168;49.164;9.060;2024-03-08T18:10:53;9.60;60.10
30379;DHT22;17168;49.164;9.060;2024-03-08T18:13:26;9.50;60.10
30379;DHT22;17168;49.164;9.060;2024-03-08T18:16:01;9.40;60.20
30379;DHT22;17168;49.164;9.060;2024-03-08T18:18:36;9.40;60.20
30379;DHT22;17168;49.164;9.060;2024-03-08T18:21:09;9.40;60.40
30379;DHT22;17168;49.164;9.060;2024-03-08T18:23:41;9.30;60.30
30379;DHT22;17168;49.164;9.060;2024-03-08T18:26:16;9.30;60.40
30379;DHT22;17168;49.164;9.060;2024-03-08T18:28:50;9.20;60.40
30379;DHT22;17168;49.164;9.060;2024-03-08T18:31:23;9.10;60.60
30379;DHT22;17168;49.164;9.060;2024-03-08T18:33:59;9.10;60.70
30379;DHT22;17168;49.164;9.060;2024-03-08T18:36:31;9.10;60.80
30379;DHT22;17168;49.164;9.060;2024-03-08T18:39:05;9.00;60.90
30379;DHT22;17168;49.164;9.060;2024-03-08T18:41:39;9.00;61.00
30379;DHT22;17168;49.164;9.060;2024-03-08T18:44:11;8.90;61.20
30379;DHT22;17168;49.164;9.060;2024-03-08T18:46:45;8.90;61.40
30379;DHT22;17168;49.164;9.060;2024-03-08T18:49:20;8.90;61.70
30379;DHT22;17168;49.164;9.060;2024-03-08T18:51:52;8.80;61.70
30379;DHT22;17168;49.164;9.060;2024-03-08T18:54:26;8.80;61.70
30379;DHT22;17168;49.164;9.060;2024-03-08T18:56:58;8.80;61.70
30379;DHT22;17168;49.164;9.060;2024-03-08T18:59:32;8.70;61.70
30379;DHT22;17168;49.164;9.060;2024-03-08T19:02:06;8.90;62.40
30379;DHT22;17168;49.164;9.060;2024-03-08T19:04:42;9.40;62.30
30379;DHT22;17168;49.164;9.060;2024-03-08T19:07:14;9.90;61.80
30379;DHT22;17168;49.164;9.060;2024-03-08T19:09:46;10.30;61.20
30379;DHT22;17168;49.164;9.060;2024-03-08T19:12:18;10.70;60.60
30379;DHT22;17168;49.164;9.060;2024-03-08T19:14:51;11.10;60.10
30379;DHT22;17168;49.164;9.060;2024-03-08T19:17:23;11.40;59.50
30379;DHT22;17168;49.164;9.060;2024-03-08T19:19:59;11.60;59.00
30379;DHT22;17168;49.164;9.060;2024-03-08T19:22:32;11.80;58.50
30379;DHT22;17168;49.164;9.060;2024-03-08T19:25:05;12.00;58.20
30379;DHT22;17168;49.164;9.060;2024-03-08T19:27:39;12.10;57.80
30379;DHT22;17168;49.164;9.060;2024-03-08T19:30:13;12.20;57.30
30379;DHT22;17168;49.164;9.060;2024-03-08T19:32:45;12.30;57.10
30379;DHT22;17168;49.164;9.060;2024-03-08T19:35:20;12.40;56.90
30379;DHT22;17168;49.164;9.060;2024-03-08T19:37:55;12.40;56.50
30379;DHT22;17168;49.164;9.060;2024-03-08T19:40:29;12.50;56.30
30379;DHT22;17168;49.164;9.060;2024-03-08T19:43:22;12.50;56.00
30379;DHT22;17168;49.164;9.060;2024-03-08T19:45:59;12.50;55.90
30379;DHT22;17168;49.164;9.060;2024-03-08T19:48:31;12.50;55.80
30379;DHT22;17168;49.164;9.060;2024-03-08T19:51:06;12.50;55.60
30379;DHT22;17168;49.164;9.060;2024-03-08T19:53:38;12.50;55.50